Time;durP1;ratioP1;P1;durP2;ratioP2;P2;SDS_P1;SDS_P2;PMS_P1;PMS_P2;Temp;Humidity;BMP_temperature;BMP_pressure;BME280_temperature;BME280_humidity;BME280_pressure;Samples;Min_cycle;Max_cycle;Signal;HPM_P1;HPM_P2
2022/01/07 00:01:30;;;;;;;9.52;2.90;;;;;;;0.44;100.00;100825.72;5269889;28;20034;-77
2022/01/07 00:04:01;;;;;;;14.95;2.80;;;;;;;0.62;100.00;100831.03;5279267;28;20440;-78
2022/01/07 00:06:31;;;;;;;10.25;3.03;;;;;;;0.62;100.00;100825.00;5275821;28;20305;-77
2022/01/07 00:09:02;;;;;;;11.48;2.47;;;;;;;0.51;100.00;100832.63;5264433;28;20447;-77
2022/01/07 00:11:33;;;;;;;8.38;2.47;;;;;;;0.43;100.00;100824.00;5270290;28;20048;-78
2022/01/07 00:14:03;;;;;;;10.98;2.42;;;;;;;0.44;100.00;100820.59;5275448;28;20064;-77
2022/01/07 00:16:33;;;;;;;10.82;2.40;;;;;;;0.40;100.00;100823.94;5264736;28;20436;-77
2022/01/07 00:19:04;;;;;;;12.63;2.65;;;;;;;0.35;100.00;100825.63;5267955;28;20031;-78
2022/01/07 00:21:34;;;;;;;11.93;2.85;;;;;;;0.40;100.00;100818.81;5272045;28;20508;-77
2022/01/07 00:24:04;;;;;;;14.40;2.90;;;;;;;0.38;100.00;100820.50;5272922;28;20039;-79
2022/01/07 00:26:34;;;;;;;8.32;2.40;;;;;;;0.41;100.00;100810.25;5266570;28;20055;-77
2022/01/07 00:29:05;;;;;;;13.48;3.00;;;;;;;0.45;100.00;100814.59;5266452;28;20174;-77
2022/01/07 00:31:35;;;;;;;13.52;2.72;;;;;;;0.36;100.00;100811.94;5261246;28;20059;-77
2022/01/07 00:34:05;;;;;;;11.63;2.95;;;;;;;0.28;100.00;100823.00;5270319;28;20031;-77
2022/01/07 00:36:36;;;;;;;10.80;2.83;;;;;;;0.31;100.00;100820.44;5279261;28;20178;-77
2022/01/07 00:39:06;;;;;;;13.07;3.22;;;;;;;0.27;100.00;100822.16;5270832;28;20128;-77
2022/01/07 00:41:36;;;;;;;6.78;2.83;;;;;;;0.23;100.00;100825.50;5274618;28;20274;-75
2022/01/07 00:44:06;;;;;;;13.98;2.65;;;;;;;0.17;100.00;100833.16;5269832;28;20028;-76
2022/01/07 00:46:37;;;;;;;15.27;2.90;;;;;;;0.15;100.00;100822.03;5276556;28;20019;-75
2022/01/07 00:49:07;;;;;;;11.02;2.83;;;;;;;0.17;100.00;100825.47;5271247;28;20035;-77
2022/01/07 00:51:38;;;;;;;12.98;3.08;;;;;;;0.24;100.00;100822.09;5266998;28;20028;-77
2022/01/07 00:54:08;;;;;;;8.75;2.60;;;;;;;0.45;100.00;100813.72;5268946;28;20481;-78
2022/01/07 00:56:38;;;;;;;10.52;2.80;;;;;;;0.31;100.00;100811.03;5285247;28;20048;-78
2022/01/07 00:59:09;;;;;;;12.35;2.95;;;;;;;0.19;100.00;100803.22;5272975;28;20073;-77
2022/01/07 01:01:39;;;;;;;13.70;3.22;;;;;;;0.16;100.00;100810.91;5277097;28;20125;-77
2022/01/07 01:04:10;;;;;;;11.55;3.33;;;;;;;0.09;100.00;100801.41;5268404;28;20039;-78
2022/01/07 01:06:41;;;;;;;20.48;3.30;;;;;;;0.16;100.00;100800.63;5272170;28;20095;-78
2022/01/07 01:09:12;;;;;;;17.92;3.20;;;;;;;0.21;100.00;100791.22;5273546;28;20477;-77
2022/01/07 01:11:42;;;;;;;11.93;3.17;;;;;;;0.17;100.00;100792.06;5270143;28;20031;-77
2022/01/07 01:14:12;;;;;;;11.68;2.90;;;;;;;0.19;100.00;100795.50;5272082;28;20031;-78
2022/01/07 01:16:44;;;;;;;14.10;3.13;;;;;;;0.23;100.00;100789.53;5269400;28;20048;-76
2022/01/07 01:19:14;;;;;;;15.90;3.10;;;;;;;0.25;100.00;100787.84;5274661;28;20027;-76
2022/01/07 01:21:45;;;;;;;12.27;3.28;;;;;;;0.18;100.00;100790.38;5288531;28;20483;-75
2022/01/07 01:24:15;;;;;;;12.80;3.28;;;;;;;0.28;100.00;100790.47;5271065;28;20035;-77
2022/01/07 01:26:45;;;;;;;9.35;2.85;;;;;;;0.20;100.00;100776.66;5279680;28;20028;-76
2022/01/07 01:29:16;;;;;;;12.10;3.28;;;;;;;0.25;100.00;100777.56;5283042;28;20481;-77
2022/01/07 01:31:46;;;;;;;14.32;2.88;;;;;;;0.30;100.00;100763.06;5279364;28;20573;-75
2022/01/07 01:34:17;;;;;;;18.50;3.70;;;;;;;0.32;100.00;100763.94;5279083;28;20024;-76
2022/01/07 01:36:47;;;;;;;14.18;3.85;;;;;;;0.29;100.00;100761.34;5276964;28;20032;-76
2022/01/07 01:39:17;;;;;;;13.95;3.25;;;;;;;0.28;100.00;100751.91;5277453;28;20556;-76
2022/01/07 01:41:48;;;;;;;14.63;3.58;;;;;;;0.43;100.00;100752.03;5277290;27;20061;-77
2022/01/07 01:44:18;;;;;;;12.38;3.42;;;;;;;0.28;100.00;100741.63;5278897;28;20034;-75
2022/01/07 01:46:49;;;;;;;9.50;3.20;;;;;;;0.37;100.00;100733.16;5275875;28;20050;-76
2022/01/07 01:49:19;;;;;;;13.50;3.80;;;;;;;0.39;100.00;100734.84;5278377;28;20501;-76
2022/01/07 01:51:50;;;;;;;9.13;3.70;;;;;;;0.33;100.00;100724.53;5277586;28;20024;-76
2022/01/07 01:54:20;;;;;;;11.05;3.50;;;;;;;0.43;100.00;100722.91;5280125;28;20109;-76
2022/01/07 01:56:51;;;;;;;18.85;3.67;;;;;;;0.33;100.00;100724.53;5284390;28;20068;-78
2022/01/07 01:59:26;;;;;;;10.27;2.88;;;;;;;0.37;100.00;100716.00;5281671;28;20070;-76
2022/01/07 02:01:57;;;;;;;13.70;3.65;;;;;;;0.49;100.00;100716.09;5283789;28;20062;-76
2022/01/07 02:04:28;;;;;;;12.95;3.25;;;;;;;0.49;100.00;100708.38;5281759;28;20027;-76
2022/01/07 02:06:59;;;;;;;9.85;3.17;;;;;;;0.38;100.00;100707.44;5279764;28;20028;-77
2022/01/07 02:09:35;;;;;;;11.93;3.90;;;;;;;0.49;100.00;100713.53;5270240;28;20028;-77
2022/01/07 02:12:08;;;;;;;11.35;3.50;;;;;;;0.54;100.00;100711.00;5277483;28;20047;-76
2022/01/07 02:14:50;;;;;;;16.48;3.45;;;;;;;0.66;100.00;100709.34;5281289;28;20085;-76
2022/01/07 02:17:20;;;;;;;17.15;4.05;;;;;;;0.59;100.00;100697.28;5269268;28;20030;-77
2022/01/07 02:19:52;;;;;;;15.40;3.42;;;;;;;0.72;100.00;100688.81;5271051;28;20032;-77
2022/01/07 02:22:26;;;;;;;11.63;3.45;;;;;;;0.81;100.00;100683.72;5271359;28;20034;-75
2022/01/07 02:24:56;;;;;;;9.38;3.05;;;;;;;0.72;100.00;100688.81;5269190;28;20066;-76
2022/01/07 02:27:28;;;;;;;9.00;3.40;;;;;;;0.74;100.00;100678.53;5273797;28;20370;-76
2022/01/07 02:29:59;;;;;;;13.93;3.42;;;;;;;0.79;100.00;100676.84;5269455;28;20035;-76
2022/01/07 02:32:29;;;;;;;9.18;3.50;;;;;;;0.82;100.00;100670.00;5270864;28;20020;-78
2022/01/07 02:35:00;;;;;;;12.95;3.40;;;;;;;0.84;100.00;100658.00;5270609;28;20035;-76
2022/01/07 02:37:30;;;;;;;10.93;3.15;;;;;;;0.70;100.00;100659.66;5265851;28;20031;-76
2022/01/07 02:40:02;;;;;;;14.93;3.60;;;;;;;0.81;100.00;100655.44;5273698;28;20038;-76
2022/01/07 02:42:32;;;;;;;18.30;3.55;;;;;;;0.74;100.00;100656.22;5281498;28;20031;-76
2022/01/07 02:45:08;;;;;;;10.57;4.18;;;;;;;0.73;100.00;100654.53;5277955;28;20032;-77
2022/01/07 02:47:50;;;;;;;11.85;3.38;;;;;;;0.86;100.00;100656.31;5267137;28;20242;-76
2022/01/07 02:50:22;;;;;;;12.57;3.17;;;;;;;0.94;100.00;100646.91;5275514;28;20025;-75
2022/01/07 02:52:54;;;;;;;10.65;3.08;;;;;;;1.00;100.00;100646.06;5282176;28;20035;-76
2022/01/07 02:55:26;;;;;;;8.85;2.72;;;;;;;1.00;100.00;100635.78;5280581;28;20028;-78
2022/01/07 02:57:56;;;;;;;11.30;2.70;;;;;;;1.02;100.00;100632.38;5281747;28;20038;-77
2022/01/07 03:00:28;;;;;;;8.95;3.00;;;;;;;1.04;100.00;100635.78;5280006;28;20024;-77
2022/01/07 03:02:59;;;;;;;13.10;2.83;;;;;;;1.01;100.00;100634.91;5281334;28;20024;-76
2022/01/07 03:05:30;;;;;;;10.65;3.00;;;;;;;0.99;100.00;100629.78;5280944;28;20462;-77
2022/01/07 03:08:00;;;;;;;12.23;3.13;;;;;;;1.11;100.00;100623.81;5274006;28;20050;-76
2022/01/07 03:10:30;;;;;;;8.95;3.25;;;;;;;1.17;100.00;100622.13;5272531;28;20081;-77
2022/01/07 03:13:03;;;;;;;8.80;2.60;;;;;;;1.17;100.00;100622.13;5276630;28;20058;-78
2022/01/07 03:15:36;;;;;;;10.38;2.70;;;;;;;1.15;100.00;100610.97;5274796;28;20035;-77
2022/01/07 03:18:08;;;;;;;8.15;2.40;;;;;;;1.11;100.00;100605.81;5270731;28;20016;-76
2022/01/07 03:20:38;;;;;;;12.82;3.10;;;;;;;1.20;100.00;100604.09;5269958;28;20020;-76
2022/01/07 03:23:11;;;;;;;11.35;2.92;;;;;;;1.09;100.00;100592.91;5269030;28;20118;-77
2022/01/07 03:25:44;;;;;;;11.40;2.67;;;;;;;1.09;100.00;100592.91;5268817;28;20028;-76
2022/01/07 03:28:14;;;;;;;10.55;2.72;;;;;;;1.16;100.00;100586.94;5268885;28;20051;-75
2022/01/07 03:30:46;;;;;;;10.75;2.42;;;;;;;1.16;100.00;100584.38;5268825;28;20058;-78
2022/01/07 03:33:18;;;;;;;6.22;2.58;;;;;;;1.27;100.00;100580.09;5267276;28;20026;-76
2022/01/07 03:35:48;;;;;;;9.63;2.60;;;;;;;1.22;100.00;100574.09;5280327;28;20098;-76
2022/01/07 03:38:20;;;;;;;11.80;2.53;;;;;;;1.17;100.00;100568.09;5272241;28;20051;-76
2022/01/07 03:40:50;;;;;;;15.23;2.75;;;;;;;1.09;100.00;100564.63;5271858;28;20079;-76
2022/01/07 03:43:21;;;;;;;7.50;2.42;;;;;;;1.21;100.00;100561.22;5270080;28;20100;-76
2022/01/07 03:45:51;;;;;;;12.35;2.80;;;;;;;1.13;100.00;100548.34;5272053;28;20038;-77
2022/01/07 03:48:21;;;;;;;11.00;2.55;;;;;;;1.19;100.00;100538.06;5272328;28;20038;-76
2022/01/07 03:50:52;;;;;;;9.35;2.45;;;;;;;1.22;100.00;100537.22;5275895;28;20393;-77
2022/01/07 03:53:25;;;;;;;9.35;2.63;;;;;;;1.24;100.00;100538.91;5270450;28;20023;-77
2022/01/07 03:55:55;;;;;;;7.18;2.33;;;;;;;1.23;100.00;100526.91;5269125;28;20028;-75
2022/01/07 03:58:26;;;;;;;15.27;2.90;;;;;;;1.24;100.00;100520.06;5269902;28;20046;-77
2022/01/07 04:00:56;;;;;;;10.02;2.53;;;;;;;1.28;100.00;100521.75;5269379;28;20024;-78
2022/01/07 04:03:26;;;;;;;13.57;2.20;;;;;;;1.34;100.00;100524.34;5268688;28;20520;-76
2022/01/07 04:05:56;;;;;;;8.48;2.40;;;;;;;1.43;100.00;100517.47;5266961;28;20028;-77
2022/01/07 04:08:27;;;;;;;12.35;2.60;;;;;;;1.47;100.00;100514.06;5265856;28;20466;-76
2022/01/07 04:10:57;;;;;;;9.68;2.42;;;;;;;1.62;100.00;100502.88;5277506;28;20080;-77
2022/01/07 04:13:27;;;;;;;9.32;2.35;;;;;;;1.58;100.00;100503.75;5268028;28;20020;-76
2022/01/07 04:15:57;;;;;;;12.98;2.15;;;;;;;1.56;100.00;100492.59;5270385;28;20039;-75
2022/01/07 04:18:28;;;;;;;9.88;2.70;;;;;;;1.59;100.00;100484.88;5269727;28;20481;-76
2022/01/07 04:20:58;;;;;;;13.40;2.67;;;;;;;1.72;100.00;100484.84;5265367;28;20039;-77
2022/01/07 04:23:29;;;;;;;10.18;2.22;;;;;;;1.65;100.00;100482.28;5266998;28;20095;-77
2022/01/07 04:25:59;;;;;;;8.70;2.50;;;;;;;1.78;100.00;100484.81;5267145;28;20032;-75
2022/01/07 04:28:30;;;;;;;9.43;2.20;;;;;;;1.73;100.00;100483.13;5266770;28;20366;-76
2022/01/07 04:31:00;;;;;;;5.18;2.00;;;;;;;1.67;100.00;100478.84;5266961;28;20034;-75
2022/01/07 04:33:33;;;;;;;10.23;2.20;;;;;;;1.78;100.00;100488.25;5266243;28;20132;-76
2022/01/07 04:36:03;;;;;;;7.57;2.30;;;;;;;1.62;100.00;100478.00;5264334;28;20085;-78
2022/01/07 04:38:34;;;;;;;7.28;2.38;;;;;;;1.63;100.00;100474.56;5268351;28;20024;-77
2022/01/07 04:41:04;;;;;;;7.95;2.50;;;;;;;1.75;100.00;100469.38;5271214;28;20024;-76
2022/01/07 04:43:34;;;;;;;10.80;2.88;;;;;;;1.70;100.00;100465.97;5268126;28;20028;-76
2022/01/07 04:46:05;;;;;;;9.57;2.95;;;;;;;1.64;100.00;100460.84;5269410;28;20579;-76
2022/01/07 04:48:35;;;;;;;11.35;2.22;;;;;;;1.61;100.00;100453.09;5265579;28;20037;-75
2022/01/07 04:51:06;;;;;;;12.13;2.42;;;;;;;1.57;100.00;100453.97;5264445;28;20032;-78
2022/01/07 04:53:36;;;;;;;10.38;2.40;;;;;;;1.66;100.00;100447.94;5270600;28;20040;-77
2022/01/07 04:56:06;;;;;;;7.90;2.38;;;;;;;1.72;100.00;100451.34;5269626;28;20028;-76
2022/01/07 04:58:36;;;;;;;8.57;2.33;;;;;;;1.71;100.00;100444.50;5273254;28;20040;-77
2022/01/07 05:01:07;;;;;;;13.90;2.15;;;;;;;1.75;100.00;100445.34;5270368;28;20032;-77
2022/01/07 05:03:37;;;;;;;8.48;2.10;;;;;;;1.77;100.00;100444.47;5271069;28;20024;-77
2022/01/07 05:06:44;;;;;;;7.88;2.25;;;;;;;1.83;100.00;100452.19;5268499;28;20035;-76
2022/01/07 05:09:03;;;;;;;;;;;;;;;1.90;100.00;100439.28;5263089;28;20028;-75
2022/01/07 05:11:34;;;;;;;7.45;1.67;;;;;;;1.86;100.00;100429.00;5277277;28;19912;-76
2022/01/07 05:14:04;;;;;;;10.70;2.30;;;;;;;2.02;100.00;100422.94;5273979;28;20032;-77
2022/01/07 05:16:34;;;;;;;6.93;2.00;;;;;;;2.31;100.00;100426.25;5272553;28;20020;-77
2022/01/07 05:19:05;;;;;;;5.13;1.70;;;;;;;2.38;100.00;100430.50;5274508;28;20047;-76
2022/01/07 05:21:36;;;;;;;6.72;1.92;;;;;;;2.47;100.00;100412.41;5272478;28;20024;-77
2022/01/07 05:24:07;;;;;;;9.88;2.00;;;;;;;2.65;99.57;100412.28;5272010;28;21392;-78
2022/01/07 05:26:37;;;;;;;9.48;1.90;;;;;;;2.69;98.63;100413.97;5272945;28;20068;-77
2022/01/07 05:29:07;;;;;;;9.13;1.80;;;;;;;2.66;98.51;100408.84;5272297;28;20043;-77
2022/01/07 05:31:37;;;;;;;7.35;1.95;;;;;;;2.73;97.75;100395.91;5272159;28;20026;-76
2022/01/07 05:34:08;;;;;;;8.98;2.30;;;;;;;2.68;98.34;100397.63;5272124;28;20535;-77
2022/01/07 05:36:38;;;;;;;6.70;2.10;;;;;;;2.65;99.04;100407.13;5266939;28;20077;-77
2022/01/07 05:39:08;;;;;;;6.47;1.90;;;;;;;2.67;98.44;100402.81;5274425;28;20243;-76
2022/01/07 05:41:39;;;;;;;4.90;2.08;;;;;;;2.70;98.39;100402.78;5272351;28;20020;-77
2022/01/07 05:44:09;;;;;;;12.30;2.50;;;;;;;2.78;98.50;100398.41;5273623;28;20441;-78
2022/01/07 05:46:39;;;;;;;10.63;2.50;;;;;;;2.73;98.34;100389.88;5271182;28;20027;-78
2022/01/07 05:49:10;;;;;;;10.15;2.80;;;;;;;2.74;97.98;100392.44;5273895;28;20034;-76
2022/01/07 05:51:41;;;;;;;5.90;1.88;;;;;;;2.73;98.00;100384.72;5271570;28;20035;-77
2022/01/07 05:54:12;;;;;;;8.45;2.10;;;;;;;2.80;97.83;100376.03;5269773;28;20028;-77
2022/01/07 05:56:42;;;;;;;9.90;2.10;;;;;;;2.83;97.52;100368.31;5274399;28;20031;-77
2022/01/07 05:59:12;;;;;;;10.60;2.25;;;;;;;2.84;97.47;100363.13;5268502;28;20035;-77
2022/01/07 06:01:43;;;;;;;7.93;2.35;;;;;;;2.83;97.30;100369.13;5277944;28;20030;-78
2022/01/07 06:04:13;;;;;;;8.68;2.50;;;;;;;2.93;96.71;100367.34;5271647;28;20053;-78
2022/01/07 06:06:43;;;;;;;9.88;2.15;;;;;;;2.84;96.72;100357.13;5273281;28;20255;-77
2022/01/07 06:09:14;;;;;;;9.30;2.25;;;;;;;2.77;97.74;100356.31;5272579;28;20031;-77
2022/01/07 06:11:45;;;;;;;8.90;2.40;;;;;;;2.82;97.42;100348.53;5271675;28;20032;-78
2022/01/07 06:14:15;;;;;;;6.50;2.35;;;;;;;2.89;97.23;100345.03;5265327;28;20061;-78
2022/01/07 06:16:46;;;;;;;7.93;2.20;;;;;;;2.88;96.58;100344.16;5268215;28;20579;-78
2022/01/07 06:19:16;;;;;;;5.70;2.33;;;;;;;2.97;96.47;100345.78;5264932;28;20099;-78
2022/01/07 06:21:46;;;;;;;7.88;2.17;;;;;;;3.06;96.13;100343.16;5265597;28;20031;-78
2022/01/07 06:24:17;;;;;;;6.05;2.35;;;;;;;2.93;96.77;100352.72;5264484;28;20144;-77
2022/01/07 06:26:47;;;;;;;9.15;2.38;;;;;;;2.87;97.37;100347.59;5275066;28;20039;-78
2022/01/07 06:29:17;;;;;;;8.63;2.28;;;;;;;2.94;95.93;100348.41;5261482;28;20054;-77
2022/01/07 06:31:47;;;;;;;6.35;2.10;;;;;;;2.99;96.64;100341.50;5273584;28;20167;-77
2022/01/07 06:34:20;;;;;;;6.25;2.17;;;;;;;2.92;96.60;100340.69;5285106;28;20457;-78
2022/01/07 06:36:50;;;;;;;7.50;2.15;;;;;;;3.31;97.67;100339.44;5275947;28;20032;-77
2022/01/07 06:39:22;;;;;;;10.38;2.50;;;;;;;3.39;95.92;100342.81;5278169;28;20011;-78
2022/01/07 06:41:53;;;;;;;6.90;2.25;;;;;;;3.20;94.50;100343.88;5276388;28;20055;-77
2022/01/07 06:44:23;;;;;;;6.63;2.30;;;;;;;3.16;94.83;100337.03;5273653;28;20042;-77
2022/01/07 06:46:54;;;;;;;7.13;2.00;;;;;;;3.17;94.59;100344.75;5280764;28;20077;-78
2022/01/07 06:49:24;;;;;;;8.02;2.40;;;;;;;3.09;95.09;100345.69;5273027;28;20030;-78
2022/01/07 06:51:54;;;;;;;6.95;2.20;;;;;;;3.12;95.68;100340.50;5281050;28;20047;-78
2022/01/07 06:54:27;;;;;;;7.35;2.10;;;;;;;3.13;95.63;100334.47;5273885;28;20024;-77
2022/01/07 06:56:57;;;;;;;4.75;2.33;;;;;;;3.15;95.10;100335.28;5274633;28;20043;-78
2022/01/07 06:59:28;;;;;;;6.03;2.33;;;;;;;3.15;95.20;100341.34;5273340;28;20019;-78
2022/01/07 07:01:58;;;;;;;8.48;2.60;;;;;;;3.09;95.75;100328.50;5279572;28;20020;-78
2022/01/07 07:04:29;;;;;;;6.82;2.50;;;;;;;3.15;95.84;100332.72;5282693;28;20111;-77
2022/01/07 07:06:59;;;;;;;10.43;2.78;;;;;;;3.07;96.89;100326.78;5265571;28;20352;-78
2022/01/07 07:09:30;;;;;;;6.68;2.90;;;;;;;3.07;97.04;100329.38;5280799;28;20019;-77
2022/01/07 07:12:00;;;;;;;6.40;2.33;;;;;;;3.08;97.00;100324.22;5271871;28;20023;-77
2022/01/07 07:14:30;;;;;;;7.53;2.65;;;;;;;3.10;97.49;100324.16;5279727;28;20085;-77
2022/01/07 07:17:00;;;;;;;7.07;2.63;;;;;;;3.01;98.64;100311.38;5268168;28;20496;-77
2022/01/07 07:19:31;;;;;;;8.90;2.90;;;;;;;2.99;98.65;100315.69;5277696;28;20025;-77
2022/01/07 07:22:02;;;;;;;8.00;2.55;;;;;;;2.97;99.37;100313.13;5275196;28;20551;-77
2022/01/07 07:24:32;;;;;;;6.90;2.50;;;;;;;2.89;100.00;100311.47;5275337;28;20045;-77
2022/01/07 07:27:03;;;;;;;9.10;2.90;;;;;;;3.02;99.52;100310.50;5274708;28;20032;-78
2022/01/07 07:29:33;;;;;;;6.57;2.53;;;;;;;3.04;99.77;100316.50;5287930;22;20110;-81
2022/01/07 07:32:07;;;;;;;7.68;2.40;;;;;;;2.98;99.74;100311.38;5259110;28;20039;-79
2022/01/07 07:36:26;;;;;;;7.00;2.60;;;;;;;3.08;99.81;100320.75;5241186;28;20115;-81
2022/01/07 07:37:34;;;;;;;7.18;2.60;;;;;;;2.94;100.00;100326.06;5238413;28;20033;-79
2022/01/07 07:40:05;;;;;;;8.65;2.83;;;;;;;2.92;100.00;100324.34;5228525;28;20024;-82
2022/01/07 07:42:36;;;;;;;13.00;2.90;;;;;;;2.89;100.00;100316.63;5236563;28;20522;-80
2022/01/07 07:45:07;;;;;;;8.52;2.90;;;;;;;2.90;100.00;100326.09;5231867;28;20082;-81
2022/01/07 07:47:37;;;;;;;8.07;2.95;;;;;;;2.99;100.00;100310.53;5242908;28;20299;-81
2022/01/07 07:50:08;;;;;;;8.98;3.25;;;;;;;3.03;100.00;100325.94;5250340;28;20031;-80
2022/01/07 07:52:38;;;;;;;7.43;2.80;;;;;;;3.08;100.00;100315.59;5247748;28;20039;-79
2022/01/07 07:55:09;;;;;;;8.07;2.95;;;;;;;3.10;100.00;100313.84;5256008;28;20032;-80
2022/01/07 07:57:39;;;;;;;6.97;2.50;;;;;;;2.93;100.00;100326.91;5236796;28;20482;-81
2022/01/07 08:00:10;;;;;;;5.63;2.60;;;;;;;2.98;100.00;100321.69;5255149;28;20111;-81
2022/01/07 08:02:41;;;;;;;7.35;2.92;;;;;;;2.93;100.00;100326.91;5237217;28;20025;-80
2022/01/07 08:05:11;;;;;;;5.90;2.70;;;;;;;2.80;100.00;100325.31;5232730;28;20498;-79
2022/01/07 08:07:41;;;;;;;5.45;2.63;;;;;;;2.77;100.00;100317.59;5252828;28;20031;-80
2022/01/07 08:10:12;;;;;;;9.10;2.63;;;;;;;2.75;100.00;100324.50;5253752;28;20025;-82
2022/01/07 08:18:23;;;;;;;7.70;2.70;;;;;;;2.58;100.00;100304.84;5249161;28;20082;-80
2022/01/07 08:20:56;;;;;;;5.93;2.80;;;;;;;2.53;100.00;100309.22;5258238;28;20073;-81
2022/01/07 08:23:27;;;;;;;8.32;2.97;;;;;;;2.59;100.00;100299.69;5255538;28;20020;-79
2022/01/07 08:25:58;;;;;;;5.80;2.95;;;;;;;2.64;100.00;100289.31;5257600;28;20035;-79
2022/01/07 08:28:35;;;;;;;5.70;2.35;;;;;;;2.63;100.00;100291.06;5254852;28;20028;-81
2022/01/07 08:36:30;;;;;;;9.52;2.72;;;;;;;2.58;100.00;100287.69;5255678;28;20493;-81
2022/01/07 08:39:04;;;;;;;4.65;2.60;;;;;;;2.68;100.00;100288.47;5249305;28;20058;-81
2022/01/07 08:41:36;;;;;;;7.32;2.60;;;;;;;2.62;100.00;100289.34;5235778;28;20092;-81
2022/01/07 08:44:06;;;;;;;5.35;2.10;;;;;;;2.62;100.00;100283.31;5254595;28;20036;-80
2022/01/07 08:46:37;;;;;;;4.38;2.40;;;;;;;2.69;100.00;100275.53;5236442;28;20032;-79
2022/01/07 08:49:07;;;;;;;6.22;2.28;;;;;;;2.71;100.00;100272.94;5250516;28;20067;-80
2022/01/07 08:51:39;;;;;;;3.95;2.38;;;;;;;2.61;100.00;100276.47;5227783;28;20488;-80
2022/01/07 08:54:10;;;;;;;5.03;2.20;;;;;;;2.68;100.00;100268.66;5245420;28;20085;-81
2022/01/07 08:56:40;;;;;;;5.63;2.33;;;;;;;2.73;100.00;100277.22;5245606;28;20104;-81
2022/01/07 08:59:10;;;;;;;5.97;2.35;;;;;;;2.72;100.00;100274.66;5246340;28;20035;-80
2022/01/07 09:01:42;;;;;;;5.57;2.25;;;;;;;2.74;100.00;100273.78;5245779;28;20020;-80
2022/01/07 09:04:12;;;;;;;5.78;2.40;;;;;;;2.64;100.00;100272.13;5227895;28;20163;-79
2022/01/07 09:06:43;;;;;;;4.88;2.45;;;;;;;2.76;100.00;100278.91;5242272;28;20115;-81
2022/01/07 09:09:13;;;;;;;5.53;2.58;;;;;;;2.77;100.00;100280.63;5226964;28;20481;-80
2022/01/07 09:11:43;;;;;;;7.20;2.03;;;;;;;2.83;100.00;100278.00;5246807;28;20115;-79
2022/01/07 09:14:14;;;;;;;5.10;2.17;;;;;;;2.88;100.00;100271.06;5246566;28;20039;-80
2022/01/07 09:16:44;;;;;;;5.28;2.53;;;;;;;2.92;100.00;100270.16;5245590;28;20355;-82
2022/01/07 09:19:14;;;;;;;8.85;2.40;;;;;;;2.96;100.00;100264.09;5231399;28;20048;-82
2022/01/07 09:21:44;;;;;;;6.68;2.50;;;;;;;3.02;100.00;100267.47;5241370;28;20021;-80
2022/01/07 09:24:15;;;;;;;6.55;2.42;;;;;;;2.99;100.00;100270.09;5257958;28;20059;-80
2022/01/07 09:26:45;;;;;;;6.25;2.40;;;;;;;2.96;100.00;100266.66;5235041;28;20431;-79
2022/01/07 09:29:15;;;;;;;5.65;2.70;;;;;;;3.03;100.00;100276.06;5246391;28;20027;-80
2022/01/07 09:31:46;;;;;;;9.30;2.95;;;;;;;2.91;100.00;100263.28;5239184;28;20114;-80
2022/01/07 09:34:16;;;;;;;6.97;2.65;;;;;;;2.98;100.00;100262.34;5260970;28;20031;-80
2022/01/07 09:36:46;;;;;;;7.20;3.70;;;;;;;3.01;100.00;100273.50;5243690;28;20024;-81
2022/01/07 09:39:17;;;;;;;7.30;2.92;;;;;;;3.10;100.00;100268.25;5251593;28;20048;-80
2022/01/07 09:41:47;;;;;;;5.72;3.17;;;;;;;3.09;100.00;100268.25;5253616;28;20037;-80
2022/01/07 09:44:18;;;;;;;5.13;2.55;;;;;;;3.30;100.00;100270.59;5227194;28;20029;-80
2022/01/07 09:46:48;;;;;;;5.57;2.70;;;;;;;3.14;100.00;100269.91;5239565;28;20028;-79
2022/01/07 09:49:18;;;;;;;6.13;2.83;;;;;;;3.13;100.00;100263.06;5228407;28;20390;-79
2022/01/07 09:51:49;;;;;;;5.53;2.60;;;;;;;3.25;100.00;100254.31;5266349;28;20486;-81
2022/01/07 09:54:19;;;;;;;8.60;3.13;;;;;;;3.25;100.00;100246.56;5264059;28;20044;-81
2022/01/07 09:56:49;;;;;;;5.63;2.70;;;;;;;3.34;100.00;100254.22;5261331;28;20043;-81
2022/01/07 09:59:20;;;;;;;6.10;2.58;;;;;;;3.45;100.00;100249.75;5244987;28;20052;-80
2022/01/07 10:01:54;;;;;;;5.93;2.50;;;;;;;3.26;100.00;100258.59;5265969;28;20455;-80
2022/01/07 10:04:39;;;;;;;5.75;3.03;;;;;;;3.37;100.00;100257.59;5240028;28;20032;-79
2022/01/07 10:07:17;;;;;;;5.83;2.97;;;;;;;3.38;100.00;100266.22;5253480;28;20066;-81
2022/01/07 10:10:00;;;;;;;9.98;2.92;;;;;;;3.32;100.00;100261.09;5238600;28;20084;-81
2022/01/07 10:12:52;;;;;;;6.60;2.85;;;;;;;3.38;100.00;100259.31;5266374;28;20032;-81
2022/01/07 10:15:24;;;;;;;5.85;2.65;;;;;;;3.16;100.00;100257.00;5256541;28;20019;-80
2022/01/07 10:18:04;;;;;;;6.80;2.63;;;;;;;3.20;100.00;100243.19;5239110;28;20044;-81
2022/01/07 10:20:41;;;;;;;8.52;2.95;;;;;;;3.30;100.00;100249.94;5240565;28;20032;-81
2022/01/07 10:23:14;;;;;;;6.32;2.90;;;;;;;3.34;100.00;100249.06;5261367;28;20031;-80
2022/01/07 10:25:47;;;;;;;6.05;2.88;;;;;;;3.41;100.00;100240.34;5239285;28;20029;-80
2022/01/07 10:28:19;;;;;;;5.63;2.67;;;;;;;3.38;100.00;100238.66;5249797;28;20028;-80
2022/01/07 10:30:52;;;;;;;6.65;2.80;;;;;;;3.47;100.00;100232.50;5264525;28;20039;-80
2022/01/07 10:33:35;;;;;;;6.63;2.40;;;;;;;3.51;100.00;100234.22;5233623;28;20052;-81
2022/01/07 10:36:06;;;;;;;4.38;2.50;;;;;;;3.36;100.00;100224.06;5234047;28;20029;-81
2022/01/07 10:39:00;;;;;;;5.53;2.75;;;;;;;3.37;100.00;100225.78;5241644;28;20086;-81
2022/01/07 10:41:30;;;;;;;9.13;3.30;;;;;;;3.39;100.00;100224.03;5208402;28;20043;-81
2022/01/07 10:44:04;;;;;;;7.43;2.78;;;;;;;3.40;100.00;100223.16;5232983;28;20033;-80
2022/01/07 10:46:34;;;;;;;5.53;2.95;;;;;;;3.48;100.00;100218.72;5246557;28;20024;-80
2022/01/07 10:49:05;;;;;;;6.40;2.67;;;;;;;3.39;100.00;100222.28;5252453;28;20024;-79
2022/01/07 10:51:38;;;;;;;6.75;2.92;;;;;;;3.47;100.00;100228.22;5245155;28;20035;-80
2022/01/07 10:54:16;;;;;;;8.48;2.85;;;;;;;3.47;100.00;100227.34;5233473;28;20071;-80
2022/01/07 10:56:48;;;;;;;5.72;3.03;;;;;;;3.45;100.00;100234.25;5253239;28;20493;-80
2022/01/07 10:59:20;;;;;;;7.20;3.03;;;;;;;3.48;100.00;100224.75;5234625;28;20527;-81
2022/01/07 11:01:57;;;;;;;7.05;3.30;;;;;;;3.49;100.00;100215.25;5234250;28;20036;-81
2022/01/07 11:04:31;;;;;;;5.90;2.78;;;;;;;3.45;100.00;100221.34;5251693;28;20089;-80
2022/01/07 11:07:09;;;;;;;4.55;2.60;;;;;;;3.57;100.00;100222.03;5250324;28;20504;-80
2022/01/07 11:09:40;;;;;;;7.72;2.80;;;;;;;3.57;100.00;100213.44;5227988;28;20032;-81
2022/01/07 11:12:10;;;;;;;6.43;2.83;;;;;;;3.72;100.00;100211.50;5248639;28;20141;-80
2022/01/07 11:14:42;;;;;;;8.43;3.00;;;;;;;3.75;100.00;100217.50;5255930;28;20074;-80
2022/01/07 11:17:20;;;;;;;6.55;2.85;;;;;;;3.68;100.00;100215.88;5229697;28;20021;-80
2022/01/07 11:19:54;;;;;;;5.78;2.53;;;;;;;3.79;100.00;100202.81;5260117;28;20391;-80
2022/01/07 11:22:28;;;;;;;7.07;2.38;;;;;;;3.85;100.00;100201.00;5252173;28;20090;-81
2022/01/07 11:25:13;;;;;;;5.22;2.67;;;;;;;3.91;100.00;100206.06;5233880;28;20028;-79
2022/01/07 11:27:52;;;;;;;7.00;2.95;;;;;;;3.85;100.00;100198.41;5241639;28;20024;-80
2022/01/07 11:30:28;;;;;;;8.32;2.65;;;;;;;3.91;100.00;100195.72;5238437;28;20050;-81
2022/01/07 11:33:21;;;;;;;5.97;2.83;;;;;;;3.85;100.00;100203.56;5259827;28;20062;-79
2022/01/07 11:35:52;;;;;;;5.47;2.78;;;;;;;3.92;100.00;100202.59;5241519;28;20033;-80
2022/01/07 11:38:43;;;;;;;7.00;2.72;;;;;;;4.05;100.00;100201.53;5248255;28;20051;-81
2022/01/07 11:41:35;;;;;;;5.22;2.92;;;;;;;4.06;100.00;100192.91;5244209;28;20028;-80
2022/01/07 11:44:12;;;;;;;7.93;3.22;;;;;;;4.05;100.00;100191.19;5243106;28;20028;-81
2022/01/07 11:46:42;;;;;;;6.05;2.88;;;;;;;4.04;100.00;100194.66;5246953;28;20020;-80
2022/01/07 11:49:31;;;;;;;6.75;2.70;;;;;;;4.21;100.00;100184.91;5230949;28;20033;-80
2022/01/07 11:52:53;;;;;;;4.65;2.63;;;;;;;4.24;100.00;100186.56;5237195;28;20029;-80
2022/01/07 11:55:33;;;;;;;4.85;2.65;;;;;;;4.09;100.00;100190.25;5220433;28;20106;-81
2022/01/07 11:58:08;;;;;;;6.28;2.75;;;;;;;4.05;100.00;100182.56;5247897;28;20035;-80